Terminal Aerodrome Forecast
Issued by NWS

Home | Current Version | Previous Version | Text Only | Print | Product List | Glossary On
Versions: 1 2 3 4 5 6 7 8 9 10 11 12 13 14 15 16 17 18 19 20 21 22 23 24
000
FTUS44 KLIX 290500
TAFHDC
TAF
KHDC 290522Z 2906/3006 00000KT P6SM FEW250
      TEMPO 2910/2913 5SM BR
     FM291700 20007KT P6SM SCT250
     FM292300 23006KT P6SM BKN110
     FM300400 30004KT P6SM BKN110=

USA.gov is the U.S. government's official web portal to all federal, state and local government web resources and services.